Houston, Minnesota
Current Conditions -  °F | °C
As of 6:53 AM on Saturday 20 Dec 2014 (Local Time) from KLSE Reporting Station
Overcast Overcast  
Wind Chill: 24°   Ceiling: 1600
Heat Index: 30°   Visibility: 10mi
Dew Point: 24°   Wind: 6mph
Humidity: 79%   Direction: 150°SSE
Pressure: 30.22"   Gusts: NA
Location:  43.76°N, 91.57°W
Report Text: KLSE 201253Z 15005KT 10SM OVC016 M01/M04 A3022 RMK AO2 SLP247 T10111044 $
Loading
Personal Weather Stations






























Interactive Weather Map New forecast layout! Learn more

10-Day Weather Forecast

Advertisements
Track Severe Weather on mobile